sensor_id;sensor_type;location;lat;lon;timestamp;temperature;humidity
27413;DHT22;14871;52.702;5.230;2022-11-09T00:01:16;14.10;99.90
27413;DHT22;14871;52.702;5.230;2022-11-09T00:03:42;14.10;99.90
27413;DHT22;14871;52.702;5.230;2022-11-09T00:06:07;14.10;99.90
27413;DHT22;14871;52.702;5.230;2022-11-09T00:08:35;14.30;99.90
27413;DHT22;14871;52.702;5.230;2022-11-09T00:11:02;14.30;99.90
27413;DHT22;14871;52.702;5.230;2022-11-09T00:13:27;14.30;99.90
27413;DHT22;14871;52.702;5.230;2022-11-09T00:15:56;14.40;99.90
27413;DHT22;14871;52.702;5.230;2022-11-09T00:18:22;14.50;99.90
27413;DHT22;14871;52.702;5.230;2022-11-09T00:20:47;14.50;99.90
27413;DHT22;14871;52.702;5.230;2022-11-09T00:23:13;14.50;99.90
27413;DHT22;14871;52.702;5.230;2022-11-09T00:25:38;14.50;99.90
27413;DHT22;14871;52.702;5.230;2022-11-09T00:28:04;14.60;99.90
27413;DHT22;14871;52.702;5.230;2022-11-09T00:30:29;14.50;99.90
27413;DHT22;14871;52.702;5.230;2022-11-09T00:32:55;14.50;99.90
27413;DHT22;14871;52.702;5.230;2022-11-09T00:35:21;14.60;99.90
27413;DHT22;14871;52.702;5.230;2022-11-09T00:37:46;14.30;99.90
27413;DHT22;14871;52.702;5.230;2022-11-09T00:40:12;14.40;99.90
27413;DHT22;14871;52.702;5.230;2022-11-09T00:42:37;14.60;99.90
27413;DHT22;14871;52.702;5.230;2022-11-09T00:45:03;14.40;99.90
27413;DHT22;14871;52.702;5.230;2022-11-09T00:47:28;14.40;99.90
27413;DHT22;14871;52.702;5.230;2022-11-09T00:49:54;14.50;99.90
27413;DHT22;14871;52.702;5.230;2022-11-09T00:52:20;14.40;99.90
27413;DHT22;14871;52.702;5.230;2022-11-09T00:54:45;14.50;99.90
27413;DHT22;14871;52.702;5.230;2022-11-09T00:57:11;14.50;99.90
27413;DHT22;14871;52.702;5.230;2022-11-09T00:59:37;14.40;99.90
27413;DHT22;14871;52.702;5.230;2022-11-09T01:02:02;14.40;99.90
27413;DHT22;14871;52.702;5.230;2022-11-09T01:04:28;14.50;99.90
27413;DHT22;14871;52.702;5.230;2022-11-09T01:06:53;14.50;99.90
27413;DHT22;14871;52.702;5.230;2022-11-09T01:09:19;14.70;99.90
27413;DHT22;14871;52.702;5.230;2022-11-09T01:11:44;14.50;99.90
27413;DHT22;14871;52.702;5.230;2022-11-09T01:14:10;14.50;99.90
27413;DHT22;14871;52.702;5.230;2022-11-09T01:16:35;14.40;99.90
27413;DHT22;14871;52.702;5.230;2022-11-09T01:19:01;14.30;99.90
27413;DHT22;14871;52.702;5.230;2022-11-09T01:21:27;14.20;99.90
27413;DHT22;14871;52.702;5.230;2022-11-09T01:23:54;14.20;99.90
27413;DHT22;14871;52.702;5.230;2022-11-09T01:26:20;14.20;99.90
27413;DHT22;14871;52.702;5.230;2022-11-09T01:28:46;14.20;99.90
27413;DHT22;14871;52.702;5.230;2022-11-09T01:31:12;14.00;99.90
27413;DHT22;14871;52.702;5.230;2022-11-09T01:33:38;14.20;99.90
27413;DHT22;14871;52.702;5.230;2022-11-09T01:36:05;14.20;99.90
27413;DHT22;14871;52.702;5.230;2022-11-09T01:38:31;14.10;99.90
27413;DHT22;14871;52.702;5.230;2022-11-09T01:40:57;14.10;99.90
27413;DHT22;14871;52.702;5.230;2022-11-09T01:43:22;14.10;99.90
27413;DHT22;14871;52.702;5.230;2022-11-09T01:45:49;14.00;99.90
27413;DHT22;14871;52.702;5.230;2022-11-09T01:48:20;14.30;99.90
27413;DHT22;14871;52.702;5.230;2022-11-09T01:50:54;14.20;99.90
27413;DHT22;14871;52.702;5.230;2022-11-09T01:53:28;14.20;99.90
27413;DHT22;14871;52.702;5.230;2022-11-09T01:55:55;14.10;99.90
27413;DHT22;14871;52.702;5.230;2022-11-09T01:58:26;14.10;99.90
27413;DHT22;14871;52.702;5.230;2022-11-09T02:00:53;14.20;99.90
27413;DHT22;14871;52.702;5.230;2022-11-09T02:03:28;14.20;99.90
27413;DHT22;14871;52.702;5.230;2022-11-09T02:05:55;14.40;99.90
27413;DHT22;14871;52.702;5.230;2022-11-09T02:08:21;14.40;99.90
27413;DHT22;14871;52.702;5.230;2022-11-09T02:11:08;14.60;99.90
27413;DHT22;14871;52.702;5.230;2022-11-09T02:13:34;14.60;99.90
27413;DHT22;14871;52.702;5.230;2022-11-09T02:16:01;14.40;99.90
27413;DHT22;14871;52.702;5.230;2022-11-09T02:18:26;14.20;99.90
27413;DHT22;14871;52.702;5.230;2022-11-09T02:20:53;14.50;99.90
27413;DHT22;14871;52.702;5.230;2022-11-09T02:23:19;14.30;99.90
27413;DHT22;14871;52.702;5.230;2022-11-09T02:26:08;14.30;99.90
27413;DHT22;14871;52.702;5.230;2022-11-09T02:28:30;14.50;99.90
27413;DHT22;14871;52.702;5.230;2022-11-09T02:30:56;14.60;99.90
27413;DHT22;14871;52.702;5.230;2022-11-09T02:33:22;14.50;99.90
27413;DHT22;14871;52.702;5.230;2022-11-09T02:35:48;14.30;99.90
27413;DHT22;14871;52.702;5.230;2022-11-09T02:38:13;14.50;99.90
27413;DHT22;14871;52.702;5.230;2022-11-09T02:40:39;14.30;99.90
27413;DHT22;14871;52.702;5.230;2022-11-09T02:43:06;14.70;99.90
27413;DHT22;14871;52.702;5.230;2022-11-09T02:45:32;14.60;99.90
27413;DHT22;14871;52.702;5.230;2022-11-09T02:47:58;14.40;99.90
27413;DHT22;14871;52.702;5.230;2022-11-09T02:50:23;14.50;99.90
27413;DHT22;14871;52.702;5.230;2022-11-09T02:52:49;14.60;99.90
27413;DHT22;14871;52.702;5.230;2022-11-09T02:55:14;14.50;99.90
27413;DHT22;14871;52.702;5.230;2022-11-09T02:57:40;14.50;99.90
27413;DHT22;14871;52.702;5.230;2022-11-09T03:00:05;14.50;99.90
27413;DHT22;14871;52.702;5.230;2022-11-09T03:02:31;14.50;99.90
27413;DHT22;14871;52.702;5.230;2022-11-09T03:04:56;14.70;99.90
27413;DHT22;14871;52.702;5.230;2022-11-09T03:07:22;14.70;99.90
27413;DHT22;14871;52.702;5.230;2022-11-09T03:09:47;14.50;99.90
27413;DHT22;14871;52.702;5.230;2022-11-09T03:12:13;14.30;99.90
27413;DHT22;14871;52.702;5.230;2022-11-09T03:14:57;14.50;99.90
27413;DHT22;14871;52.702;5.230;2022-11-09T03:17:23;14.50;99.90
27413;DHT22;14871;52.702;5.230;2022-11-09T03:19:48;14.30;99.90
27413;DHT22;14871;52.702;5.230;2022-11-09T03:22:14;14.30;99.90
27413;DHT22;14871;52.702;5.230;2022-11-09T03:24:39;14.20;99.90
27413;DHT22;14871;52.702;5.230;2022-11-09T03:27:05;14.10;99.90
27413;DHT22;14871;52.702;5.230;2022-11-09T03:29:30;14.40;99.90
27413;DHT22;14871;52.702;5.230;2022-11-09T03:31:56;14.30;99.90
27413;DHT22;14871;52.702;5.230;2022-11-09T03:34:21;14.20;99.90
27413;DHT22;14871;52.702;5.230;2022-11-09T03:36:47;14.30;99.90
27413;DHT22;14871;52.702;5.230;2022-11-09T03:39:12;14.50;99.90
27413;DHT22;14871;52.702;5.230;2022-11-09T03:41:38;14.30;99.90
27413;DHT22;14871;52.702;5.230;2022-11-09T03:44:03;14.30;99.90
27413;DHT22;14871;52.702;5.230;2022-11-09T03:46:29;14.30;99.90
27413;DHT22;14871;52.702;5.230;2022-11-09T03:48:54;14.40;99.90
27413;DHT22;14871;52.702;5.230;2022-11-09T03:51:20;14.20;99.90
27413;DHT22;14871;52.702;5.230;2022-11-09T03:53:45;13.90;99.90
27413;DHT22;14871;52.702;5.230;2022-11-09T03:56:10;14.10;99.90
27413;DHT22;14871;52.702;5.230;2022-11-09T03:58:36;14.10;99.90
27413;DHT22;14871;52.702;5.230;2022-11-09T04:01:01;14.30;99.90
27413;DHT22;14871;52.702;5.230;2022-11-09T04:03:27;14.40;99.90
27413;DHT22;14871;52.702;5.230;2022-11-09T04:05:53;14.00;99.90
27413;DHT22;14871;52.702;5.230;2022-11-09T04:08:18;14.00;99.90
27413;DHT22;14871;52.702;5.230;2022-11-09T04:10:43;14.30;99.90
27413;DHT22;14871;52.702;5.230;2022-11-09T04:13:09;14.30;99.90
27413;DHT22;14871;52.702;5.230;2022-11-09T04:15:35;14.20;99.90
27413;DHT22;14871;52.702;5.230;2022-11-09T04:18:00;14.00;99.90
27413;DHT22;14871;52.702;5.230;2022-11-09T04:20:27;13.80;99.90
27413;DHT22;14871;52.702;5.230;2022-11-09T04:22:57;14.00;99.90
27413;DHT22;14871;52.702;5.230;2022-11-09T04:25:23;13.90;99.90
27413;DHT22;14871;52.702;5.230;2022-11-09T04:27:56;14.00;99.90
27413;DHT22;14871;52.702;5.230;2022-11-09T04:30:22;14.00;99.90
27413;DHT22;14871;52.702;5.230;2022-11-09T04:32:48;14.20;99.90
27413;DHT22;14871;52.702;5.230;2022-11-09T04:35:14;14.20;99.90
27413;DHT22;14871;52.702;5.230;2022-11-09T04:37:39;14.10;99.90
27413;DHT22;14871;52.702;5.230;2022-11-09T04:40:05;14.10;99.90
27413;DHT22;14871;52.702;5.230;2022-11-09T04:42:31;14.20;99.90
27413;DHT22;14871;52.702;5.230;2022-11-09T04:44:56;14.40;99.90
27413;DHT22;14871;52.702;5.230;2022-11-09T04:47:21;14.20;99.90
27413;DHT22;14871;52.702;5.230;2022-11-09T04:49:47;14.20;99.90
27413;DHT22;14871;52.702;5.230;2022-11-09T04:52:12;14.10;99.90
27413;DHT22;14871;52.702;5.230;2022-11-09T04:54:38;14.20;99.90
27413;DHT22;14871;52.702;5.230;2022-11-09T04:57:03;14.10;99.90
27413;DHT22;14871;52.702;5.230;2022-11-09T04:59:29;14.30;99.90
27413;DHT22;14871;52.702;5.230;2022-11-09T05:01:54;14.60;99.90
27413;DHT22;14871;52.702;5.230;2022-11-09T05:04:20;14.30;99.90
27413;DHT22;14871;52.702;5.230;2022-11-09T05:06:45;14.30;99.90
27413;DHT22;14871;52.702;5.230;2022-11-09T05:09:11;14.40;99.90
27413;DHT22;14871;52.702;5.230;2022-11-09T05:11:36;14.30;99.90
27413;DHT22;14871;52.702;5.230;2022-11-09T05:14:02;14.40;99.90
27413;DHT22;14871;52.702;5.230;2022-11-09T05:16:28;14.40;99.90
27413;DHT22;14871;52.702;5.230;2022-11-09T05:18:54;14.40;99.90
27413;DHT22;14871;52.702;5.230;2022-11-09T05:21:19;14.50;99.90
27413;DHT22;14871;52.702;5.230;2022-11-09T05:23:45;14.40;99.90
27413;DHT22;14871;52.702;5.230;2022-11-09T05:26:31;14.40;99.90
27413;DHT22;14871;52.702;5.230;2022-11-09T05:28:57;14.40;99.90
27413;DHT22;14871;52.702;5.230;2022-11-09T05:31:25;14.20;99.90
27413;DHT22;14871;52.702;5.230;2022-11-09T05:33:51;14.10;99.90
27413;DHT22;14871;52.702;5.230;2022-11-09T05:36:17;14.10;99.90
27413;DHT22;14871;52.702;5.230;2022-11-09T05:38:43;14.10;99.90
27413;DHT22;14871;52.702;5.230;2022-11-09T05:41:09;14.10;99.90
27413;DHT22;14871;52.702;5.230;2022-11-09T05:43:34;14.00;99.90
27413;DHT22;14871;52.702;5.230;2022-11-09T05:46:00;13.80;99.90
27413;DHT22;14871;52.702;5.230;2022-11-09T05:48:25;13.80;99.90
27413;DHT22;14871;52.702;5.230;2022-11-09T05:50:51;13.80;99.90
27413;DHT22;14871;52.702;5.230;2022-11-09T05:53:16;13.90;99.90
27413;DHT22;14871;52.702;5.230;2022-11-09T05:55:42;13.80;99.90
27413;DHT22;14871;52.702;5.230;2022-11-09T05:58:07;13.80;99.90
27413;DHT22;14871;52.702;5.230;2022-11-09T06:00:33;14.00;99.90
27413;DHT22;14871;52.702;5.230;2022-11-09T06:03:02;13.80;99.90
27413;DHT22;14871;52.702;5.230;2022-11-09T06:05:28;13.90;99.90
27413;DHT22;14871;52.702;5.230;2022-11-09T06:07:53;13.70;99.90
27413;DHT22;14871;52.702;5.230;2022-11-09T06:10:19;13.70;99.90
27413;DHT22;14871;52.702;5.230;2022-11-09T06:12:48;13.70;99.90
27413;DHT22;14871;52.702;5.230;2022-11-09T06:15:14;13.60;99.90
27413;DHT22;14871;52.702;5.230;2022-11-09T06:17:39;13.60;99.90
27413;DHT22;14871;52.702;5.230;2022-11-09T06:20:05;13.50;99.90
27413;DHT22;14871;52.702;5.230;2022-11-09T06:22:31;13.70;99.90
27413;DHT22;14871;52.702;5.230;2022-11-09T06:24:56;13.60;99.90
27413;DHT22;14871;52.702;5.230;2022-11-09T06:27:22;13.60;99.90
27413;DHT22;14871;52.702;5.230;2022-11-09T06:29:47;13.60;99.90
27413;DHT22;14871;52.702;5.230;2022-11-09T06:32:12;13.70;99.90
27413;DHT22;14871;52.702;5.230;2022-11-09T06:34:38;13.80;99.90
27413;DHT22;14871;52.702;5.230;2022-11-09T06:37:03;13.80;99.90
27413;DHT22;14871;52.702;5.230;2022-11-09T06:39:29;13.60;99.90
27413;DHT22;14871;52.702;5.230;2022-11-09T06:41:54;13.50;99.90
27413;DHT22;14871;52.702;5.230;2022-11-09T06:44:20;13.60;99.90
27413;DHT22;14871;52.702;5.230;2022-11-09T06:46:45;13.40;99.90
27413;DHT22;14871;52.702;5.230;2022-11-09T06:49:11;13.70;99.90
27413;DHT22;14871;52.702;5.230;2022-11-09T06:51:36;13.70;99.90
27413;DHT22;14871;52.702;5.230;2022-11-09T06:54:02;13.50;99.90
27413;DHT22;14871;52.702;5.230;2022-11-09T06:56:27;13.50;99.90
27413;DHT22;14871;52.702;5.230;2022-11-09T06:58:53;13.50;99.90
27413;DHT22;14871;52.702;5.230;2022-11-09T07:01:18;13.40;99.90
27413;DHT22;14871;52.702;5.230;2022-11-09T07:03:45;13.50;99.90
27413;DHT22;14871;52.702;5.230;2022-11-09T07:06:11;13.50;99.90
27413;DHT22;14871;52.702;5.230;2022-11-09T07:08:37;13.60;99.90
27413;DHT22;14871;52.702;5.230;2022-11-09T07:11:03;13.50;99.90
27413;DHT22;14871;52.702;5.230;2022-11-09T07:13:29;13.70;99.90
27413;DHT22;14871;52.702;5.230;2022-11-09T07:15:55;13.60;99.90
27413;DHT22;14871;52.702;5.230;2022-11-09T07:18:20;13.70;99.90
27413;DHT22;14871;52.702;5.230;2022-11-09T07:20:46;13.60;99.90
27413;DHT22;14871;52.702;5.230;2022-11-09T07:23:11;13.70;99.90
27413;DHT22;14871;52.702;5.230;2022-11-09T07:25:36;13.50;99.90
27413;DHT22;14871;52.702;5.230;2022-11-09T07:28:05;13.50;99.90
27413;DHT22;14871;52.702;5.230;2022-11-09T07:30:32;13.50;99.90
27413;DHT22;14871;52.702;5.230;2022-11-09T07:32:58;13.50;99.90
27413;DHT22;14871;52.702;5.230;2022-11-09T07:35:24;13.40;99.90
27413;DHT22;14871;52.702;5.230;2022-11-09T07:37:50;13.40;99.90
27413;DHT22;14871;52.702;5.230;2022-11-09T07:40:16;13.50;99.90
27413;DHT22;14871;52.702;5.230;2022-11-09T07:42:41;13.60;99.90
27413;DHT22;14871;52.702;5.230;2022-11-09T07:45:07;13.60;99.90
27413;DHT22;14871;52.702;5.230;2022-11-09T07:47:32;13.60;99.90
27413;DHT22;14871;52.702;5.230;2022-11-09T07:49:58;13.50;99.90
27413;DHT22;14871;52.702;5.230;2022-11-09T07:52:23;13.70;99.90
27413;DHT22;14871;52.702;5.230;2022-11-09T07:54:48;13.80;99.90
27413;DHT22;14871;52.702;5.230;2022-11-09T07:57:14;13.70;99.90
27413;DHT22;14871;52.702;5.230;2022-11-09T07:59:39;13.80;99.90
27413;DHT22;14871;52.702;5.230;2022-11-09T08:02:05;13.60;99.90
27413;DHT22;14871;52.702;5.230;2022-11-09T08:04:30;13.80;99.90
27413;DHT22;14871;52.702;5.230;2022-11-09T08:06:56;14.00;99.90
27413;DHT22;14871;52.702;5.230;2022-11-09T08:09:21;14.00;99.90
27413;DHT22;14871;52.702;5.230;2022-11-09T08:11:47;13.70;99.90
27413;DHT22;14871;52.702;5.230;2022-11-09T08:14:12;13.90;99.90
27413;DHT22;14871;52.702;5.230;2022-11-09T08:16:38;13.90;99.90
27413;DHT22;14871;52.702;5.230;2022-11-09T08:19:03;14.00;99.90
27413;DHT22;14871;52.702;5.230;2022-11-09T08:21:28;14.10;99.90
27413;DHT22;14871;52.702;5.230;2022-11-09T08:23:54;14.50;99.90
27413;DHT22;14871;52.702;5.230;2022-11-09T08:26:19;14.80;99.90
27413;DHT22;14871;52.702;5.230;2022-11-09T08:28:45;15.10;99.90
27413;DHT22;14871;52.702;5.230;2022-11-09T08:31:10;15.40;99.90
27413;DHT22;14871;52.702;5.230;2022-11-09T08:33:37;15.60;99.90
27413;DHT22;14871;52.702;5.230;2022-11-09T08:36:10;15.80;99.90
27413;DHT22;14871;52.702;5.230;2022-11-09T08:38:36;15.70;99.90
27413;DHT22;14871;52.702;5.230;2022-11-09T08:41:01;15.90;99.90
27413;DHT22;14871;52.702;5.230;2022-11-09T08:43:27;16.40;99.90
27413;DHT22;14871;52.702;5.230;2022-11-09T08:45:52;16.70;99.90
27413;DHT22;14871;52.702;5.230;2022-11-09T08:48:18;16.60;99.90
27413;DHT22;14871;52.702;5.230;2022-11-09T08:50:43;17.10;99.90
27413;DHT22;14871;52.702;5.230;2022-11-09T08:53:09;17.10;99.90
27413;DHT22;14871;52.702;5.230;2022-11-09T08:55:35;17.30;99.90
27413;DHT22;14871;52.702;5.230;2022-11-09T08:58:01;17.30;99.90
27413;DHT22;14871;52.702;5.230;2022-11-09T09:00:27;17.70;99.90
27413;DHT22;14871;52.702;5.230;2022-11-09T09:02:52;18.20;99.90
27413;DHT22;14871;52.702;5.230;2022-11-09T09:05:18;18.10;99.90
27413;DHT22;14871;52.702;5.230;2022-11-09T09:07:44;18.30;99.90
27413;DHT22;14871;52.702;5.230;2022-11-09T09:10:09;18.60;99.90
27413;DHT22;14871;52.702;5.230;2022-11-09T09:12:35;18.80;99.90
27413;DHT22;14871;52.702;5.230;2022-11-09T09:15:01;18.80;99.90
27413;DHT22;14871;52.702;5.230;2022-11-09T09:17:26;18.60;99.90
27413;DHT22;14871;52.702;5.230;2022-11-09T09:19:52;18.50;99.90
27413;DHT22;14871;52.702;5.230;2022-11-09T09:22:17;18.90;99.90
27413;DHT22;14871;52.702;5.230;2022-11-09T09:24:43;18.90;99.90
27413;DHT22;14871;52.702;5.230;2022-11-09T09:27:09;18.80;99.90
27413;DHT22;14871;52.702;5.230;2022-11-09T09:29:34;19.00;99.90
27413;DHT22;14871;52.702;5.230;2022-11-09T09:32:00;19.00;99.90
27413;DHT22;14871;52.702;5.230;2022-11-09T09:34:25;18.50;99.90
27413;DHT22;14871;52.702;5.230;2022-11-09T09:36:51;18.40;99.90
27413;DHT22;14871;52.702;5.230;2022-11-09T09:39:17;18.70;99.90
27413;DHT22;14871;52.702;5.230;2022-11-09T09:46:48;17.60;99.90
27413;DHT22;14871;52.702;5.230;2022-11-09T09:49:20;17.60;99.90
27413;DHT22;14871;52.702;5.230;2022-11-09T09:52:08;17.70;99.90
27413;DHT22;14871;52.702;5.230;2022-11-09T09:54:38;17.80;99.90
27413;DHT22;14871;52.702;5.230;2022-11-09T09:57:04;18.20;99.90
27413;DHT22;14871;52.702;5.230;2022-11-09T09:59:37;18.40;99.90
27413;DHT22;14871;52.702;5.230;2022-11-09T10:04:48;18.10;99.90
27413;DHT22;14871;52.702;5.230;2022-11-09T10:07:17;17.90;99.90
27413;DHT22;14871;52.702;5.230;2022-11-09T10:12:18;17.20;99.90
27413;DHT22;14871;52.702;5.230;2022-11-09T10:20:00;16.40;99.90
27413;DHT22;14871;52.702;5.230;2022-11-09T10:25:00;16.40;99.90
27413;DHT22;14871;52.702;5.230;2022-11-09T10:30:00;16.20;99.90
27413;DHT22;14871;52.702;5.230;2022-11-09T10:32:28;16.20;99.90
27413;DHT22;14871;52.702;5.230;2022-11-09T10:34:55;16.20;99.90
27413;DHT22;14871;52.702;5.230;2022-11-09T10:37:30;16.20;99.90
27413;DHT22;14871;52.702;5.230;2022-11-09T10:40:02;16.10;99.90
27413;DHT22;14871;52.702;5.230;2022-11-09T10:42:28;16.20;99.90
27413;DHT22;14871;52.702;5.230;2022-11-09T10:44:53;16.00;99.90
27413;DHT22;14871;52.702;5.230;2022-11-09T10:47:19;15.90;99.90
27413;DHT22;14871;52.702;5.230;2022-11-09T10:49:44;16.00;99.90
27413;DHT22;14871;52.702;5.230;2022-11-09T10:52:30;15.60;99.90
27413;DHT22;14871;52.702;5.230;2022-11-09T10:55:16;15.40;99.90
27413;DHT22;14871;52.702;5.230;2022-11-09T10:57:56;15.50;99.90
27413;DHT22;14871;52.702;5.230;2022-11-09T11:00:22;15.60;99.90
27413;DHT22;14871;52.702;5.230;2022-11-09T11:02:47;15.50;99.90
27413;DHT22;14871;52.702;5.230;2022-11-09T11:07:43;15.20;99.90
27413;DHT22;14871;52.702;5.230;2022-11-09T11:18:11;15.30;99.90
27413;DHT22;14871;52.702;5.230;2022-11-09T11:20:37;15.50;99.90
27413;DHT22;14871;52.702;5.230;2022-11-09T11:23:13;15.60;99.90
27413;DHT22;14871;52.702;5.230;2022-11-09T11:25:39;15.50;99.90
27413;DHT22;14871;52.702;5.230;2022-11-09T11:28:27;15.40;99.90
27413;DHT22;14871;52.702;5.230;2022-11-09T11:30:54;15.50;99.90
27413;DHT22;14871;52.702;5.230;2022-11-09T11:33:20;15.40;99.90
27413;DHT22;14871;52.702;5.230;2022-11-09T11:35:52;15.30;99.90
27413;DHT22;14871;52.702;5.230;2022-11-09T11:38:29;15.30;99.90
27413;DHT22;14871;52.702;5.230;2022-11-09T11:43:38;14.80;99.90
27413;DHT22;14871;52.702;5.230;2022-11-09T11:46:20;14.80;99.90
27413;DHT22;14871;52.702;5.230;2022-11-09T11:51:39;14.90;99.90
27413;DHT22;14871;52.702;5.230;2022-11-09T11:56:46;14.80;99.90
27413;DHT22;14871;52.702;5.230;2022-11-09T11:59:25;14.90;99.90
27413;DHT22;14871;52.702;5.230;2022-11-09T12:02:00;14.80;99.90
27413;DHT22;14871;52.702;5.230;2022-11-09T12:17:20;14.90;99.90
27413;DHT22;14871;52.702;5.230;2022-11-09T12:30:15;15.40;99.90
27413;DHT22;14871;52.702;5.230;2022-11-09T12:33:05;15.30;99.90
27413;DHT22;14871;52.702;5.230;2022-11-09T12:40:25;15.90;99.90
27413;DHT22;14871;52.702;5.230;2022-11-09T12:43:08;16.30;99.90
27413;DHT22;14871;52.702;5.230;2022-11-09T12:45:37;16.90;99.90
27413;DHT22;14871;52.702;5.230;2022-11-09T12:48:05;16.90;99.90
27413;DHT22;14871;52.702;5.230;2022-11-09T12:50:34;16.70;99.90
27413;DHT22;14871;52.702;5.230;2022-11-09T12:53:00;16.70;99.90
27413;DHT22;14871;52.702;5.230;2022-11-09T12:55:28;17.00;99.90
27413;DHT22;14871;52.702;5.230;2022-11-09T12:57:57;17.10;99.90
27413;DHT22;14871;52.702;5.230;2022-11-09T13:02:58;16.80;99.90
27413;DHT22;14871;52.702;5.230;2022-11-09T13:07:53;16.50;99.90
27413;DHT22;14871;52.702;5.230;2022-11-09T13:10:24;16.20;99.90
27413;DHT22;14871;52.702;5.230;2022-11-09T13:12:53;16.20;99.90
27413;DHT22;14871;52.702;5.230;2022-11-09T13:15:26;15.90;99.90
27413;DHT22;14871;52.702;5.230;2022-11-09T13:23:02;15.30;99.90
27413;DHT22;14871;52.702;5.230;2022-11-09T13:25:47;15.30;99.90
27413;DHT22;14871;52.702;5.230;2022-11-09T13:29:05;15.40;99.90
27413;DHT22;14871;52.702;5.230;2022-11-09T13:31:07;15.30;99.90
27413;DHT22;14871;52.702;5.230;2022-11-09T13:33:33;15.20;99.90
27413;DHT22;14871;52.702;5.230;2022-11-09T13:36:11;15.10;99.90
27413;DHT22;14871;52.702;5.230;2022-11-09T13:38:37;15.00;99.90
27413;DHT22;14871;52.702;5.230;2022-11-09T13:41:04;15.10;99.90
27413;DHT22;14871;52.702;5.230;2022-11-09T13:44:03;14.90;99.90
27413;DHT22;14871;52.702;5.230;2022-11-09T13:46:31;14.80;99.90
27413;DHT22;14871;52.702;5.230;2022-11-09T13:48:58;14.80;99.90
27413;DHT22;14871;52.702;5.230;2022-11-09T13:53:59;14.40;99.90
27413;DHT22;14871;52.702;5.230;2022-11-09T13:59:09;14.40;99.90
27413;DHT22;14871;52.702;5.230;2022-11-09T14:01:44;14.60;99.90
27413;DHT22;14871;52.702;5.230;2022-11-09T14:06:45;14.30;99.90
27413;DHT22;14871;52.702;5.230;2022-11-09T14:09:11;14.40;99.90
27413;DHT22;14871;52.702;5.230;2022-11-09T14:16:55;14.00;99.90
27413;DHT22;14871;52.702;5.230;2022-11-09T14:19:42;14.10;99.90
27413;DHT22;14871;52.702;5.230;2022-11-09T14:22:14;14.30;99.90
27413;DHT22;14871;52.702;5.230;2022-11-09T14:24:40;14.50;99.90
27413;DHT22;14871;52.702;5.230;2022-11-09T14:29:35;14.70;99.90
27413;DHT22;14871;52.702;5.230;2022-11-09T14:32:12;14.80;99.90
27413;DHT22;14871;52.702;5.230;2022-11-09T14:34:40;14.90;99.90
27413;DHT22;14871;52.702;5.230;2022-11-09T14:37:05;14.90;99.90
27413;DHT22;14871;52.702;5.230;2022-11-09T14:39:31;14.80;99.90
27413;DHT22;14871;52.702;5.230;2022-11-09T14:41:58;14.70;99.90
27413;DHT22;14871;52.702;5.230;2022-11-09T14:44:31;14.70;99.90
27413;DHT22;14871;52.702;5.230;2022-11-09T14:47:00;14.60;99.90
27413;DHT22;14871;52.702;5.230;2022-11-09T14:49:26;14.80;99.90
27413;DHT22;14871;52.702;5.230;2022-11-09T14:51:52;15.00;99.90
27413;DHT22;14871;52.702;5.230;2022-11-09T14:54:18;14.90;99.90
27413;DHT22;14871;52.702;5.230;2022-11-09T14:56:45;14.70;99.90
27413;DHT22;14871;52.702;5.230;2022-11-09T14:59:13;14.90;99.90
27413;DHT22;14871;52.702;5.230;2022-11-09T15:01:39;14.70;99.90
27413;DHT22;14871;52.702;5.230;2022-11-09T15:04:17;14.70;99.90
27413;DHT22;14871;52.702;5.230;2022-11-09T15:06:50;14.70;99.90
27413;DHT22;14871;52.702;5.230;2022-11-09T15:09:18;14.60;99.90
27413;DHT22;14871;52.702;5.230;2022-11-09T15:11:44;14.50;99.90
27413;DHT22;14871;52.702;5.230;2022-11-09T15:14:10;14.50;99.90
27413;DHT22;14871;52.702;5.230;2022-11-09T15:16:36;14.50;99.90
27413;DHT22;14871;52.702;5.230;2022-11-09T15:19:02;14.50;99.90
27413;DHT22;14871;52.702;5.230;2022-11-09T15:21:34;14.40;99.90
27413;DHT22;14871;52.702;5.230;2022-11-09T15:24:01;14.40;99.90
27413;DHT22;14871;52.702;5.230;2022-11-09T15:26:33;14.40;99.90
27413;DHT22;14871;52.702;5.230;2022-11-09T15:28:59;14.40;99.90
27413;DHT22;14871;52.702;5.230;2022-11-09T15:31:24;14.50;99.90
27413;DHT22;14871;52.702;5.230;2022-11-09T15:33:52;14.40;99.90
27413;DHT22;14871;52.702;5.230;2022-11-09T15:36:26;14.40;99.90
27413;DHT22;14871;52.702;5.230;2022-11-09T15:41:27;14.40;99.90
27413;DHT22;14871;52.702;5.230;2022-11-09T15:43:53;14.40;99.90
27413;DHT22;14871;52.702;5.230;2022-11-09T15:46:20;14.40;99.90
27413;DHT22;14871;52.702;5.230;2022-11-09T15:48:46;14.40;99.90
27413;DHT22;14871;52.702;5.230;2022-11-09T15:51:12;14.40;99.90
27413;DHT22;14871;52.702;5.230;2022-11-09T15:53:38;14.30;99.90
27413;DHT22;14871;52.702;5.230;2022-11-09T15:56:03;14.30;99.90
27413;DHT22;14871;52.702;5.230;2022-11-09T15:58:29;14.30;99.90
27413;DHT22;14871;52.702;5.230;2022-11-09T16:00:54;14.30;99.90
27413;DHT22;14871;52.702;5.230;2022-11-09T16:03:20;14.30;99.90
27413;DHT22;14871;52.702;5.230;2022-11-09T16:05:45;14.30;99.90
27413;DHT22;14871;52.702;5.230;2022-11-09T16:08:11;14.20;99.90
27413;DHT22;14871;52.702;5.230;2022-11-09T16:10:37;14.20;99.90
27413;DHT22;14871;52.702;5.230;2022-11-09T16:13:04;14.20;99.90
27413;DHT22;14871;52.702;5.230;2022-11-09T16:15:31;14.10;99.90
27413;DHT22;14871;52.702;5.230;2022-11-09T16:17:57;14.10;99.90
27413;DHT22;14871;52.702;5.230;2022-11-09T16:20:22;14.00;99.90
27413;DHT22;14871;52.702;5.230;2022-11-09T16:22:48;14.00;99.90
27413;DHT22;14871;52.702;5.230;2022-11-09T16:25:14;14.10;99.90
27413;DHT22;14871;52.702;5.230;2022-11-09T16:27:39;14.10;99.90
27413;DHT22;14871;52.702;5.230;2022-11-09T16:30:05;14.10;99.90
27413;DHT22;14871;52.702;5.230;2022-11-09T16:32:32;14.00;99.90
27413;DHT22;14871;52.702;5.230;2022-11-09T16:34:57;14.00;99.90
27413;DHT22;14871;52.702;5.230;2022-11-09T16:37:24;14.10;99.90
27413;DHT22;14871;52.702;5.230;2022-11-09T16:39:50;14.10;99.90
27413;DHT22;14871;52.702;5.230;2022-11-09T16:42:16;14.00;99.90
27413;DHT22;14871;52.702;5.230;2022-11-09T16:44:42;13.90;99.90
27413;DHT22;14871;52.702;5.230;2022-11-09T16:47:09;13.90;99.90
27413;DHT22;14871;52.702;5.230;2022-11-09T16:49:35;14.00;99.90
27413;DHT22;14871;52.702;5.230;2022-11-09T16:52:00;13.90;99.90
27413;DHT22;14871;52.702;5.230;2022-11-09T16:54:26;14.00;99.90
27413;DHT22;14871;52.702;5.230;2022-11-09T16:56:52;13.80;99.90
27413;DHT22;14871;52.702;5.230;2022-11-09T16:59:19;13.80;99.90
27413;DHT22;14871;52.702;5.230;2022-11-09T17:01:51;13.90;99.90
27413;DHT22;14871;52.702;5.230;2022-11-09T17:04:17;13.90;99.90
27413;DHT22;14871;52.702;5.230;2022-11-09T17:06:42;13.90;99.90